Time;durP1;ratioP1;P1;durP2;ratioP2;P2;SDS_P1;SDS_P2;PMS_P1;PMS_P2;Temp;Humidity;BMP_temperature;BMP_pressure;BME280_temperature;BME280_humidity;BME280_pressure;Samples;Min_cycle;Max_cycle;Signal;HPM_P1;HPM_P2
2023/10/03 00:02:24;;;;;;;20.33;12.10;;;20.80;99.90;;;;;;5077540;28;20557;-79
2023/10/03 00:04:52;;;;;;;19.45;11.60;;;20.80;99.90;;;;;;5060686;28;20194;-79
2023/10/03 00:07:20;;;;;;;21.70;12.25;;;20.80;99.90;;;;;;5066764;28;20225;-79
2023/10/03 00:09:48;;;;;;;22.45;13.50;;;20.80;99.90;;;;;;5083364;28;20197;-79
2023/10/03 00:12:16;;;;;;;23.00;12.88;;;20.80;99.90;;;;;;5067668;28;20197;-79
2023/10/03 00:14:43;;;;;;;22.15;12.35;;;20.80;99.90;;;;;;5065472;28;20201;-79
2023/10/03 00:17:46;;;;;;;21.10;12.68;;;20.80;99.90;;;;;;5065114;28;20583;-79
2023/10/03 00:20:16;;;;;;;23.52;13.35;;;20.80;99.90;;;;;;5058081;28;20236;-79
2023/10/03 00:22:44;;;;;;;21.30;13.35;;;20.80;99.90;;;;;;5068753;28;20582;-79
2023/10/03 00:25:17;;;;;;;22.70;12.02;;;20.80;99.90;;;;;;5072757;28;20205;-78
2023/10/03 00:27:46;;;;;;;20.85;12.27;;;20.80;99.90;;;;;;5072428;28;20197;-79
2023/10/03 00:30:14;;;;;;;22.08;12.75;;;20.80;99.90;;;;;;5074563;28;20204;-78
2023/10/03 00:32:43;;;;;;;20.38;11.73;;;20.80;99.90;;;;;;5073886;28;20193;-79
2023/10/03 00:35:12;;;;;;;23.30;13.02;;;20.80;99.90;;;;;;5073891;28;20193;-79
2023/10/03 00:37:40;;;;;;;19.05;11.55;;;20.80;99.90;;;;;;5085117;28;20213;-79
2023/10/03 00:40:25;;;;;;;25.02;13.23;;;20.90;99.90;;;;;;5074031;28;20567;-78
2023/10/03 00:42:58;;;;;;;22.67;12.77;;;20.90;99.90;;;;;;5072494;28;20197;-79
2023/10/03 00:45:26;;;;;;;22.50;12.02;;;20.90;99.90;;;;;;5078063;28;20202;-79
2023/10/03 00:47:55;;;;;;;20.42;12.38;;;20.90;99.90;;;;;;5068046;28;20219;-79
2023/10/03 00:50:26;;;;;;;21.52;12.75;;;20.90;99.90;;;;;;5067235;28;20200;-79
2023/10/03 00:52:57;;;;;;;21.83;12.88;;;20.90;99.90;;;;;;5069961;28;20185;-79
2023/10/03 00:55:26;;;;;;;20.73;13.18;;;21.00;99.90;;;;;;5070880;28;20205;-79
2023/10/03 00:58:06;;;;;;;22.15;12.65;;;21.00;99.90;;;;;;5062372;28;20210;-79
2023/10/03 01:00:37;;;;;;;23.45;12.73;;;21.10;99.90;;;;;;5070563;28;20224;-79
2023/10/03 01:03:06;;;;;;;22.70;12.30;;;21.10;99.90;;;;;;5082886;28;20201;-79
2023/10/03 01:05:38;;;;;;;23.30;12.75;;;21.20;99.90;;;;;;5078769;28;20194;-79
2023/10/03 01:08:07;;;;;;;26.25;13.50;;;21.20;99.90;;;;;;5085773;28;20204;-78
2023/10/03 01:10:34;;;;;;;23.75;12.30;;;21.20;99.90;;;;;;5073638;28;20208;-79
2023/10/03 01:13:09;;;;;;;23.08;12.55;;;21.20;99.90;;;;;;5066681;28;20224;-79
2023/10/03 01:15:37;;;;;;;22.33;12.95;;;21.20;99.90;;;;;;5060888;28;20574;-79
2023/10/03 01:18:09;;;;;;;20.60;11.73;;;21.20;99.90;;;;;;5079947;28;21490;-79
2023/10/03 01:20:40;;;;;;;20.35;12.40;;;21.30;99.90;;;;;;5064642;28;20637;-79
2023/10/03 01:23:10;;;;;;;23.25;12.93;;;21.30;99.90;;;;;;5077542;28;20643;-79
2023/10/03 01:25:42;;;;;;;19.67;11.77;;;21.30;99.90;;;;;;5079640;28;20193;-79
2023/10/03 01:28:10;;;;;;;23.10;12.88;;;21.40;99.90;;;;;;5076566;28;20198;-79
2023/10/03 01:30:40;;;;;;;24.55;12.43;;;21.40;99.90;;;;;;5075184;28;20212;-78
2023/10/03 01:33:09;;;;;;;22.38;13.27;;;21.40;99.90;;;;;;5071456;28;20197;-78
2023/10/03 01:35:36;;;;;;;19.75;11.95;;;21.40;99.90;;;;;;5070726;28;20207;-77
2023/10/03 01:38:04;;;;;;;21.05;12.50;;;21.40;99.90;;;;;;5070326;28;20200;-77
2023/10/03 01:40:33;;;;;;;20.20;11.75;;;21.40;99.90;;;;;;5068299;28;20201;-78
2023/10/03 01:43:01;;;;;;;23.38;13.30;;;21.40;99.90;;;;;;5059829;28;20192;-78
2023/10/03 01:45:32;;;;;;;23.23;12.45;;;21.50;99.90;;;;;;5088477;28;20189;-78
2023/10/03 01:47:59;;;;;;;20.58;11.60;;;21.50;99.90;;;;;;5067117;28;20664;-78
2023/10/03 01:50:28;;;;;;;21.90;12.77;;;21.50;99.90;;;;;;5071054;28;20212;-78
2023/10/03 01:52:56;;;;;;;22.90;12.05;;;21.50;99.90;;;;;;5070409;28;20193;-78
2023/10/03 01:55:24;;;;;;;21.27;11.73;;;21.50;99.90;;;;;;5071825;28;20197;-78
2023/10/03 01:57:53;;;;;;;20.77;11.98;;;21.50;99.90;;;;;;5071859;28;20194;-78
2023/10/03 02:00:25;;;;;;;21.25;12.18;;;21.60;99.90;;;;;;5070026;28;20200;-78
2023/10/03 02:02:56;;;;;;;19.33;11.80;;;21.60;99.90;;;;;;5072103;28;20216;-78
2023/10/03 02:05:25;;;;;;;21.45;12.88;;;21.60;99.90;;;;;;5067380;28;20219;-78
2023/10/03 02:07:54;;;;;;;18.67;11.68;;;21.60;99.90;;;;;;5089161;28;20192;-78
2023/10/03 02:10:22;;;;;;;21.25;11.57;;;21.60;99.90;;;;;;5084416;28;20205;-78
2023/10/03 02:12:50;;;;;;;18.30;10.82;;;21.70;99.90;;;;;;5068163;28;20193;-78
2023/10/03 02:15:23;;;;;;;18.38;10.52;;;21.70;99.90;;;;;;5070101;28;20201;-78
2023/10/03 02:17:52;;;;;;;17.50;11.50;;;21.70;99.90;;;;;;5069229;28;20208;-78
2023/10/03 02:20:21;;;;;;;20.55;11.50;;;21.60;99.90;;;;;;5067223;28;20201;-78
2023/10/03 02:23:04;;;;;;;16.80;10.23;;;21.70;99.90;;;;;;5082714;28;20697;-78
2023/10/03 02:25:35;;;;;;;18.60;10.65;;;21.70;99.90;;;;;;5063250;28;20232;-78
2023/10/03 02:28:05;;;;;;;19.40;11.25;;;21.70;99.90;;;;;;5069304;28;20200;-78
2023/10/03 02:30:34;;;;;;;17.25;10.25;;;21.70;99.90;;;;;;5070231;28;20200;-78
2023/10/03 02:33:09;;;;;;;16.95;10.25;;;21.70;99.90;;;;;;5085701;28;20200;-78
2023/10/03 02:35:38;;;;;;;17.65;10.70;;;21.80;99.90;;;;;;5066740;28;20255;-78
2023/10/03 02:38:09;;;;;;;20.35;11.57;;;21.80;99.90;;;;;;5063804;28;20551;-78
2023/10/03 02:40:40;;;;;;;18.38;11.63;;;21.70;99.90;;;;;;5069732;28;20204;-78
2023/10/03 02:43:10;;;;;;;17.88;10.00;;;21.70;99.90;;;;;;5070655;28;20474;-78
2023/10/03 02:45:41;;;;;;;17.02;9.85;;;21.60;99.90;;;;;;5069216;28;20198;-77
2023/10/03 02:48:15;;;;;;;18.02;11.38;;;21.60;99.90;;;;;;5070359;28;20678;-78
2023/10/03 02:50:46;;;;;;;18.80;10.82;;;21.60;99.90;;;;;;5072662;28;20189;-78
2023/10/03 02:53:14;;;;;;;20.05;10.52;;;21.60;99.90;;;;;;5068669;28;20640;-76
2023/10/03 02:55:42;;;;;;;18.55;10.50;;;21.60;99.90;;;;;;5073579;28;20304;-77
2023/10/03 02:58:10;;;;;;;16.33;9.63;;;21.60;99.90;;;;;;5070413;28;20189;-77
2023/10/03 03:00:40;;;;;;;15.90;9.85;;;21.60;99.90;;;;;;5083121;28;20192;-77
2023/10/03 03:03:09;;;;;;;18.40;10.38;;;21.60;99.90;;;;;;5065281;28;20212;-77
2023/10/03 03:05:38;;;;;;;18.17;10.93;;;21.60;99.90;;;;;;5066138;28;20211;-77
2023/10/03 03:08:28;;;;;;;19.45;10.68;;;21.60;99.90;;;;;;5069023;28;20193;-77
2023/10/03 03:10:59;;;;;;;17.50;9.80;;;21.70;99.90;;;;;;5072101;28;20197;-77
2023/10/03 03:13:31;;;;;;;16.83;9.77;;;21.80;99.90;;;;;;5072697;28;20598;-77
2023/10/03 03:16:01;;;;;;;17.65;10.20;;;21.80;99.90;;;;;;5087830;28;20228;-77
2023/10/03 03:18:31;;;;;;;17.85;10.40;;;21.90;99.90;;;;;;5071603;28;20208;-77
2023/10/03 03:20:59;;;;;;;18.52;10.15;;;21.90;99.90;;;;;;5072058;28;20205;-77
2023/10/03 03:23:30;;;;;;;15.65;9.68;;;21.90;99.90;;;;;;5073060;28;20235;-77
2023/10/03 03:26:15;;;;;;;15.95;9.43;;;22.00;99.90;;;;;;5071741;28;20221;-77
2023/10/03 03:28:44;;;;;;;16.70;10.02;;;22.10;99.90;;;;;;5069701;28;20204;-77
2023/10/03 03:31:20;;;;;;;14.07;9.07;;;22.10;99.90;;;;;;5065700;28;20197;-77
2023/10/03 03:33:49;;;;;;;19.30;10.32;;;22.20;99.90;;;;;;5065775;28;20192;-77
2023/10/03 03:36:18;;;;;;;15.23;9.60;;;22.20;99.90;;;;;;5091518;28;20213;-78
2023/10/03 03:38:47;;;;;;;17.55;9.13;;;22.20;99.90;;;;;;5072547;28;20201;-78
2023/10/03 03:41:14;;;;;;;14.32;9.60;;;22.30;99.90;;;;;;5069562;28;20192;-77
2023/10/03 03:47:12;;;;;;;18.17;9.85;;;22.30;99.90;;;;;;5064424;28;20199;-77
2023/10/03 03:49:40;;;;;;;15.25;9.02;;;22.40;99.90;;;;;;5069614;28;20244;-77
2023/10/03 03:52:11;;;;;;;17.60;10.35;;;22.30;99.90;;;;;;5071416;28;20189;-77
2023/10/03 03:54:41;;;;;;;15.13;9.55;;;22.30;99.90;;;;;;5069551;28;20201;-77
2023/10/03 03:57:09;;;;;;;16.20;10.50;;;22.30;99.90;;;;;;5073051;28;20232;-77
2023/10/03 03:59:36;;;;;;;15.73;9.43;;;22.30;99.90;;;;;;5070905;28;20220;-77
2023/10/03 04:02:04;;;;;;;20.25;10.52;;;22.30;99.90;;;;;;5068610;28;20221;-78
2023/10/03 04:04:33;;;;;;;19.40;10.13;;;22.30;99.90;;;;;;5072159;28;20196;-77
2023/10/03 04:07:02;;;;;;;15.55;9.90;;;22.20;99.90;;;;;;5060677;28;20240;-77
2023/10/03 04:09:29;;;;;;;18.23;10.77;;;22.20;99.90;;;;;;5074165;28;20206;-77
2023/10/03 04:11:58;;;;;;;15.02;8.90;;;22.20;99.90;;;;;;5074112;28;20197;-77
2023/10/03 04:14:25;;;;;;;17.33;10.63;;;22.10;99.90;;;;;;5069874;28;20209;-77
2023/10/03 04:16:53;;;;;;;15.07;9.57;;;22.20;99.90;;;;;;5070763;28;20243;-78
2023/10/03 04:19:21;;;;;;;19.17;9.52;;;22.20;99.90;;;;;;5063177;28;20547;-77
2023/10/03 04:21:50;;;;;;;18.70;9.95;;;22.20;99.90;;;;;;5070628;28;20517;-77
2023/10/03 04:24:18;;;;;;;16.67;9.73;;;22.20;99.90;;;;;;5063392;28;20225;-77
2023/10/03 04:26:47;;;;;;;17.17;10.20;;;22.10;99.90;;;;;;5088456;28;20213;-77
2023/10/03 04:29:14;;;;;;;17.00;9.50;;;22.10;99.90;;;;;;5063074;28;20200;-77
2023/10/03 04:31:42;;;;;;;16.63;9.77;;;22.10;99.90;;;;;;5085527;28;20210;-78
2023/10/03 04:34:11;;;;;;;16.08;9.88;;;22.00;99.90;;;;;;5065113;28;20679;-77
2023/10/03 04:36:41;;;;;;;16.05;9.40;;;22.00;99.90;;;;;;5069013;28;20208;-78
2023/10/03 04:39:11;;;;;;;18.98;9.63;;;22.10;99.90;;;;;;5080630;28;20579;-77
2023/10/03 04:41:42;;;;;;;16.85;9.48;;;22.20;99.90;;;;;;5068034;28;20663;-77
2023/10/03 04:44:14;;;;;;;15.75;9.55;;;22.20;99.90;;;;;;5080076;28;20219;-78
2023/10/03 04:46:41;;;;;;;14.60;9.10;;;22.20;99.90;;;;;;5069456;28;20225;-78
2023/10/03 04:49:09;;;;;;;17.52;9.30;;;22.20;99.90;;;;;;5080957;28;20197;-78
2023/10/03 04:51:37;;;;;;;16.23;9.60;;;22.30;99.90;;;;;;5067939;28;20204;-78
2023/10/03 04:54:05;;;;;;;17.27;8.43;;;22.20;99.90;;;;;;5082328;22;20226;-76
2023/10/03 04:56:35;;;;;;;16.73;9.20;;;22.20;99.90;;;;;;5050773;28;20619;-77
2023/10/03 04:59:03;;;;;;;18.45;9.95;;;22.20;99.90;;;;;;5047872;28;20214;-77
2023/10/03 05:01:32;;;;;;;17.23;9.05;;;22.20;99.90;;;;;;5047241;28;20647;-76
2023/10/03 05:04:03;;;;;;;16.33;9.27;;;22.20;99.90;;;;;;5054608;28;20569;-76
2023/10/03 05:06:31;;;;;;;14.77;9.02;;;22.10;99.90;;;;;;5039939;28;20203;-76
2023/10/03 05:08:58;;;;;;;14.70;7.90;;;22.10;99.90;;;;;;5024785;28;20198;-76
2023/10/03 05:11:26;;;;;;;16.85;9.73;;;22.00;99.90;;;;;;5028454;28;20202;-77
2023/10/03 05:13:54;;;;;;;14.43;8.45;;;22.00;99.90;;;;;;5019160;28;20231;-77
2023/10/03 05:16:24;;;;;;;15.32;9.93;;;22.00;99.90;;;;;;5022540;28;20202;-77
2023/10/03 05:18:51;;;;;;;16.95;10.30;;;21.90;99.90;;;;;;5020998;28;20206;-77
2023/10/03 05:21:19;;;;;;;17.15;9.73;;;21.80;99.90;;;;;;5021534;28;20199;-77
2023/10/03 05:23:47;;;;;;;17.60;9.20;;;21.80;99.90;;;;;;5044451;28;20227;-77
2023/10/03 05:26:19;;;;;;;13.88;9.20;;;21.80;99.90;;;;;;5031578;28;20203;-78
2023/10/03 05:28:47;;;;;;;14.10;8.90;;;21.70;99.90;;;;;;5027292;28;20211;-77
2023/10/03 05:31:17;;;;;;;16.45;9.13;;;21.70;99.90;;;;;;5031653;28;20526;-77
2023/10/03 05:33:44;;;;;;;14.93;8.90;;;21.60;99.90;;;;;;5025848;28;20223;-77
2023/10/03 05:36:16;;;;;;;16.70;9.88;;;21.60;99.90;;;;;;5025648;28;20199;-78
2023/10/03 05:38:43;;;;;;;14.32;8.45;;;21.50;99.90;;;;;;5019782;28;20668;-77
2023/10/03 05:41:19;;;;;;;16.92;9.63;;;21.50;99.90;;;;;;5023357;28;20577;-77
2023/10/03 05:43:52;;;;;;;16.55;9.18;;;21.50;99.90;;;;;;5026035;28;20221;-77
2023/10/03 05:46:21;;;;;;;17.23;9.40;;;21.50;99.90;;;;;;5045566;28;20207;-76
2023/10/03 05:49:00;;;;;;;17.52;9.52;;;21.50;99.90;;;;;;5024112;28;20210;-77
2023/10/03 05:51:29;;;;;;;17.35;9.32;;;21.40;99.90;;;;;;5043588;28;20199;-77
2023/10/03 05:53:56;;;;;;;14.23;8.48;;;21.40;99.90;;;;;;5038220;28;20731;-77
2023/10/03 05:56:26;;;;;;;16.08;9.30;;;21.40;99.90;;;;;;5028643;28;20214;-77
2023/10/03 05:58:59;;;;;;;14.27;9.00;;;21.30;99.90;;;;;;5034946;28;20195;-77
2023/10/03 06:02:04;;;;;;;15.80;8.90;;;21.30;99.90;;;;;;5010656;28;20210;-77
2023/10/03 06:04:36;;;;;;;14.93;9.15;;;21.30;99.90;;;;;;5024193;28;20214;-77
2023/10/03 06:07:06;;;;;;;15.00;9.40;;;21.20;99.90;;;;;;5025219;28;20200;-77
2023/10/03 06:09:34;;;;;;;14.30;9.13;;;21.20;99.90;;;;;;5031471;28;20661;-77
2023/10/03 06:12:01;;;;;;;14.52;8.93;;;21.20;99.90;;;;;;5022666;28;20215;-77
2023/10/03 06:14:35;;;;;;;17.05;9.50;;;21.20;99.90;;;;;;5030853;28;20215;-77
2023/10/03 06:17:07;;;;;;;15.30;9.05;;;21.20;99.90;;;;;;5025690;28;20210;-77
2023/10/03 06:19:37;;;;;;;14.90;7.90;;;21.20;99.90;;;;;;5022326;28;20211;-77
2023/10/03 06:22:07;;;;;;;15.30;9.23;;;21.20;99.90;;;;;;5030995;28;20218;-76
2023/10/03 06:24:34;;;;;;;15.65;8.52;;;21.10;99.90;;;;;;5029818;28;20230;-77
2023/10/03 06:27:07;;;;;;;14.25;8.38;;;21.10;99.90;;;;;;5029864;28;20203;-76
2023/10/03 06:29:35;;;;;;;15.60;8.80;;;21.10;99.90;;;;;;5025542;28;20191;-77
2023/10/03 06:32:03;;;;;;;13.43;8.73;;;21.10;99.90;;;;;;5026979;28;20195;-77
2023/10/03 06:34:30;;;;;;;13.27;8.77;;;21.00;99.90;;;;;;5028899;28;20219;-76
2023/10/03 06:36:59;;;;;;;11.98;7.80;;;21.00;99.90;;;;;;5030314;28;20203;-76
2023/10/03 06:39:29;;;;;;;14.63;8.60;;;21.00;99.90;;;;;;5029725;28;20699;-76
2023/10/03 06:41:58;;;;;;;14.30;9.40;;;21.00;99.90;;;;;;5027505;28;20211;-76
2023/10/03 06:44:26;;;;;;;11.82;7.57;;;21.00;99.90;;;;;;5029992;28;20302;-77
2023/10/03 06:46:53;;;;;;;12.63;7.72;;;20.90;99.90;;;;;;5046238;28;20221;-76
2023/10/03 06:49:23;;;;;;;11.32;8.13;;;20.90;99.90;;;;;;5027744;28;20202;-77
2023/10/03 06:51:56;;;;;;;13.02;8.60;;;20.90;99.90;;;;;;5042342;28;20195;-77
2023/10/03 06:54:25;;;;;;;12.18;7.32;;;20.80;99.90;;;;;;5032114;28;20631;-78
2023/10/03 06:56:52;;;;;;;13.93;7.82;;;20.90;99.90;;;;;;5026963;28;20203;-76
2023/10/03 06:59:20;;;;;;;12.70;8.25;;;20.80;99.90;;;;;;5026822;28;20203;-77
2023/10/03 07:01:47;;;;;;;17.08;9.15;;;20.80;99.90;;;;;;5019840;28;20591;-77
2023/10/03 07:04:15;;;;;;;15.50;8.43;;;20.80;99.90;;;;;;5030728;28;20211;-77
2023/10/03 07:06:43;;;;;;;15.52;8.75;;;20.80;99.90;;;;;;5028365;28;20197;-77
2023/10/03 07:09:13;;;;;;;12.77;8.23;;;20.80;99.90;;;;;;5008661;28;20199;-77
2023/10/03 07:11:42;;;;;;;13.68;8.23;;;20.70;99.90;;;;;;5036228;28;20207;-77
2023/10/03 07:14:12;;;;;;;12.50;7.82;;;20.70;99.90;;;;;;5045239;28;20219;-79
2023/10/03 07:16:41;;;;;;;11.93;7.65;;;20.70;99.90;;;;;;5031060;28;20207;-78
2023/10/03 07:19:10;;;;;;;13.23;8.55;;;20.70;99.90;;;;;;5045233;28;20198;-79
2023/10/03 07:21:38;;;;;;;13.60;8.30;;;20.80;99.90;;;;;;5023394;28;20747;-79
2023/10/03 07:24:06;;;;;;;12.65;7.35;;;20.80;99.90;;;;;;5030442;28;20222;-80
2023/10/03 07:26:34;;;;;;;12.75;7.63;;;20.60;99.90;;;;;;5032888;28;20199;-79
2023/10/03 07:29:06;;;;;;;8.88;6.00;;;20.60;99.90;;;;;;5034805;28;20196;-80
2023/10/03 07:31:33;;;;;;;11.80;6.50;;;20.60;99.90;;;;;;5027943;28;20541;-78
2023/10/03 07:34:01;;;;;;;12.48;6.93;;;20.60;99.90;;;;;;5025643;28;20211;-80
2023/10/03 07:36:28;;;;;;;15.45;8.10;;;20.50;99.90;;;;;;5024717;28;20203;-81
2023/10/03 07:38:56;;;;;;;10.27;6.22;;;20.60;99.90;;;;;;5036214;28;20214;-81
2023/10/03 07:41:23;;;;;;;10.15;5.65;;;20.60;99.90;;;;;;5039392;28;20731;-80
2023/10/03 07:43:52;;;;;;;7.82;5.07;;;20.60;99.90;;;;;;5048698;28;20229;-79
2023/10/03 07:46:22;;;;;;;7.35;5.38;;;20.50;99.90;;;;;;5049066;28;20218;-80
2023/10/03 07:48:52;;;;;;;8.85;5.00;;;20.60;99.90;;;;;;5036600;28;20665;-80
2023/10/03 07:51:25;;;;;;;9.45;5.50;;;20.50;99.90;;;;;;5047552;28;20693;-80
2023/10/03 07:53:55;;;;;;;7.80;4.93;;;20.60;99.90;;;;;;5031544;28;20230;-82
2023/10/03 07:56:29;;;;;;;7.57;4.60;;;20.60;99.90;;;;;;5027792;28;20199;-80
2023/10/03 07:59:01;;;;;;;7.30;4.95;;;20.60;99.90;;;;;;5037341;28;20198;-79
2023/10/03 08:01:31;;;;;;;8.68;5.50;;;20.60;99.90;;;;;;5023267;28;20232;-80
2023/10/03 08:03:59;;;;;;;11.88;5.65;;;20.50;99.90;;;;;;5038754;28;20226;-80
2023/10/03 08:06:33;;;;;;;6.38;4.78;;;20.50;99.90;;;;;;5036937;28;20211;-80
2023/10/03 08:09:01;;;;;;;7.18;4.50;;;20.40;99.90;;;;;;5051139;28;20199;-81
2023/10/03 08:11:29;;;;;;;6.60;4.78;;;20.40;99.90;;;;;;5033093;28;20202;-80
2023/10/03 08:13:57;;;;;;;8.77;4.65;;;20.30;99.90;;;;;;5047851;28;20234;-80
2023/10/03 08:16:24;;;;;;;7.03;4.65;;;20.20;99.90;;;;;;5049185;28;20207;-79
2023/10/03 08:18:58;;;;;;;7.32;5.10;;;20.30;99.90;;;;;;5016470;28;20672;-78
2023/10/03 08:21:28;;;;;;;7.30;4.85;;;20.30;99.90;;;;;;5031536;28;20202;-78
2023/10/03 08:23:56;;;;;;;6.40;4.50;;;20.40;99.90;;;;;;5024870;28;20678;-78
2023/10/03 08:26:25;;;;;;;7.38;4.75;;;20.30;99.90;;;;;;5031201;28;20202;-78
2023/10/03 08:29:23;;;;;;;6.22;4.75;;;20.20;99.90;;;;;;5033180;28;20206;-78
2023/10/03 08:31:57;;;;;;;10.00;4.78;;;20.20;99.90;;;;;;5015721;28;20567;-79
2023/10/03 08:34:44;;;;;;;8.90;5.40;;;20.20;99.90;;;;;;5037411;28;20218;-78
2023/10/03 08:37:22;;;;;;;5.93;4.55;;;20.10;99.90;;;;;;5026576;28;20206;-79
2023/10/03 08:39:51;;;;;;;7.97;5.03;;;20.10;99.90;;;;;;5035667;28;20683;-81
2023/10/03 08:42:23;;;;;;;8.02;4.88;;;20.10;99.90;;;;;;5032658;28;20195;-80
2023/10/03 08:44:58;;;;;;;6.63;5.07;;;20.10;99.90;;;;;;5033982;28;20207;-80
2023/10/03 08:47:33;;;;;;;7.38;4.50;;;20.10;99.90;;;;;;5027040;28;20218;-79
2023/10/03 08:50:10;;;;;;;8.18;5.07;;;20.10;99.90;;;;;;5032565;28;20190;-79
2023/10/03 08:52:46;;;;;;;5.70;4.22;;;20.10;99.90;;;;;;5033935;28;20223;-79
2023/10/03 08:55:19;;;;;;;6.03;4.10;;;20.10;99.90;;;;;;5025494;28;20539;-79
2023/10/03 08:57:47;;;;;;;7.72;4.75;;;20.00;99.90;;;;;;5047566;28;20211;-79
2023/10/03 09:00:15;;;;;;;9.75;4.93;;;20.00;99.90;;;;;;5006107;28;20286;-79
2023/10/03 09:02:46;;;;;;;7.47;5.50;;;20.00;99.90;;;;;;5029232;28;20225;-79
2023/10/03 09:05:19;;;;;;;9.05;4.93;;;19.90;99.90;;;;;;5035782;28;20218;-79
2023/10/03 09:07:47;;;;;;;5.13;4.63;;;19.90;99.90;;;;;;5049636;28;20202;-79
2023/10/03 09:10:22;;;;;;;7.15;4.88;;;19.90;99.90;;;;;;5054838;28;20211;-79
2023/10/03 09:12:51;;;;;;;9.43;4.75;;;19.80;99.90;;;;;;5033034;28;20219;-79
2023/10/03 09:15:22;;;;;;;9.15;5.40;;;19.80;99.90;;;;;;5044648;28;20187;-80
2023/10/03 09:17:52;;;;;;;9.38;5.35;;;19.70;99.90;;;;;;5056513;28;20227;-80
2023/10/03 09:20:24;;;;;;;8.20;5.32;;;19.70;99.90;;;;;;5038181;28;20199;-80
2023/10/03 09:23:05;;;;;;;7.82;6.07;;;19.70;99.90;;;;;;5037387;28;20230;-79
2023/10/03 09:25:38;;;;;;;9.10;5.30;;;19.60;99.90;;;;;;5033066;28;20207;-79
2023/10/03 09:28:07;;;;;;;7.90;5.25;;;19.60;99.90;;;;;;5052173;28;20202;-79
2023/10/03 09:30:38;;;;;;;6.85;5.07;;;19.60;99.90;;;;;;5035623;28;20199;-79
2023/10/03 09:33:08;;;;;;;8.32;5.45;;;19.60;99.90;;;;;;5030530;28;20219;-80
2023/10/03 09:35:39;;;;;;;7.47;5.63;;;19.60;99.90;;;;;;5041966;28;20200;-79
2023/10/03 09:38:08;;;;;;;13.35;6.20;;;19.50;99.90;;;;;;5047341;28;20210;-79
2023/10/03 09:40:50;;;;;;;6.88;5.72;;;19.50;99.90;;;;;;5033114;28;20210;-80
2023/10/03 09:43:19;;;;;;;9.52;5.93;;;19.50;99.90;;;;;;5029308;28;20226;-81
2023/10/03 09:45:47;;;;;;;10.00;5.50;;;19.60;99.90;;;;;;5033145;28;20215;-81
2023/10/03 09:48:16;;;;;;;6.53;5.22;;;19.70;99.90;;;;;;5049107;28;20207;-79
2023/10/03 09:50:51;;;;;;;7.93;5.40;;;19.70;99.90;;;;;;5037084;28;20202;-78
2023/10/03 09:53:27;;;;;;;9.18;6.15;;;19.80;99.90;;;;;;5046983;28;20222;-79
2023/10/03 09:55:55;;;;;;;6.70;5.40;;;19.80;99.90;;;;;;5030908;28;20202;-79
2023/10/03 09:58:25;;;;;;;7.05;6.05;;;19.90;99.90;;;;;;5022143;28;20210;-78
2023/10/03 10:00:53;;;;;;;7.28;5.22;;;19.80;99.90;;;;;;5030467;28;20203;-78
2023/10/03 10:03:27;;;;;;;6.72;5.65;;;19.80;99.90;;;;;;5043838;28;20234;-78
2023/10/03 10:06:28;;;;;;;7.53;5.45;;;19.80;99.90;;;;;;5034896;28;20214;-79
2023/10/03 10:09:04;;;;;;;7.88;5.28;;;19.60;99.90;;;;;;5042176;28;20195;-79
2023/10/03 10:11:31;;;;;;;7.60;5.30;;;19.40;99.90;;;;;;5047488;28;20195;-79
2023/10/03 10:14:08;;;;;;;7.13;5.55;;;19.30;99.90;;;;;;5046857;28;20223;-79
2023/10/03 10:16:35;;;;;;;6.78;6.00;;;19.20;99.90;;;;;;5033599;28;20191;-78
2023/10/03 10:19:06;;;;;;;9.85;6.13;;;19.20;99.90;;;;;;5023616;28;20202;-79
2023/10/03 10:21:37;;;;;;;8.20;6.60;;;19.00;99.90;;;;;;5027746;28;20199;-79
2023/10/03 10:24:28;;;;;;;8.40;6.60;;;18.90;99.90;;;;;;5023484;28;20214;-78
2023/10/03 10:26:59;;;;;;;6.75;6.03;;;18.70;99.90;;;;;;5042940;28;20211;-79
2023/10/03 10:29:28;;;;;;;8.05;7.00;;;18.70;99.90;;;;;;5025740;28;20210;-79
2023/10/03 10:31:58;;;;;;;9.68;7.47;;;18.60;99.90;;;;;;5045293;28;20195;-79
2023/10/03 10:34:32;;;;;;;8.40;7.47;;;18.50;99.90;;;;;;5047378;28;20234;-79
2023/10/03 10:37:02;;;;;;;11.52;8.55;;;18.50;99.90;;;;;;5043079;28;20195;-79
2023/10/03 10:40:09;;;;;;;11.23;9.00;;;18.50;99.90;;;;;;5034462;28;20629;-79
2023/10/03 10:43:04;;;;;;;10.68;9.52;;;18.50;99.90;;;;;;5027709;28;20722;-79
2023/10/03 10:45:38;;;;;;;10.15;9.05;;;18.40;99.90;;;;;;5029772;28;20215;-78
2023/10/03 10:48:07;;;;;;;13.63;10.02;;;18.30;99.90;;;;;;5035013;28;20191;-79
2023/10/03 10:51:12;;;;;;;11.27;9.38;;;18.40;99.90;;;;;;5044555;28;20207;-78
2023/10/03 10:53:43;;;;;;;12.82;10.70;;;18.20;99.90;;;;;;5038413;28;20211;-78
2023/10/03 10:56:12;;;;;;;12.88;10.85;;;18.20;99.90;;;;;;5049661;28;20199;-78
2023/10/03 10:58:50;;;;;;;15.23;11.73;;;18.30;99.90;;;;;;5050566;28;20206;-78
2023/10/03 11:01:41;;;;;;;13.55;11.10;;;18.40;99.90;;;;;;5016974;28;20195;-79
2023/10/03 11:04:23;;;;;;;15.23;11.00;;;18.30;99.90;;;;;;5045676;28;20219;-79
2023/10/03 11:06:52;;;;;;;11.65;10.45;;;18.40;99.90;;;;;;5021449;28;20700;-78
2023/10/03 11:09:21;;;;;;;13.30;10.93;;;18.40;99.90;;;;;;5036255;28;20195;-79
2023/10/03 11:11:51;;;;;;;13.95;10.77;;;18.40;99.90;;;;;;5048209;28;20219;-79
2023/10/03 11:14:26;;;;;;;13.02;11.52;;;18.50;99.90;;;;;;5033267;28;20218;-79
2023/10/03 11:16:55;;;;;;;12.20;10.95;;;18.40;99.90;;;;;;5034380;28;20198;-79
2023/10/03 11:19:22;;;;;;;13.68;10.65;;;18.40;99.90;;;;;;5031565;28;20207;-79
2023/10/03 11:21:50;;;;;;;11.82;9.98;;;18.40;99.90;;;;;;5030285;28;20203;-79
2023/10/03 11:24:21;;;;;;;10.27;8.98;;;18.40;99.90;;;;;;5029192;28;20210;-79
2023/10/03 11:26:51;;;;;;;9.35;8.43;;;18.50;99.90;;;;;;5032690;28;20215;-79
2023/10/03 11:29:38;;;;;;;6.68;3.70;;;18.50;99.90;;;;;;5026197;28;20203;-79
2023/10/03 11:32:10;;;;;;;3.30;2.17;;;18.30;99.90;;;;;;5026271;28;20223;-79
2023/10/03 11:34:40;;;;;;;1.60;1.00;;;18.20;99.90;;;;;;5043642;28;20191;-79
2023/10/03 11:39:40;;;;;;;2.20;0.65;;;18.20;99.90;;;;;;5029932;28;20214;-80
2023/10/03 11:42:09;;;;;;;1.05;0.52;;;18.10;99.90;;;;;;5050743;28;20198;-80
2023/10/03 11:44:37;;;;;;;1.33;0.60;;;18.10;99.90;;;;;;5033688;28;20194;-80
2023/10/03 11:47:05;;;;;;;1.83;0.68;;;18.10;99.90;;;;;;5027800;28;20221;-80
2023/10/03 11:49:32;;;;;;;1.08;0.65;;;18.00;99.90;;;;;;5016142;28;20219;-81
2023/10/03 11:52:00;;;;;;;2.85;0.63;;;18.10;99.90;;;;;;5023019;28;20199;-80
2023/10/03 11:54:27;;;;;;;1.65;1.13;;;18.10;99.90;;;;;;5013910;28;20214;-80
2023/10/03 11:56:57;;;;;;;3.25;0.90;;;18.20;99.90;;;;;;5016091;28;20195;-80
2023/10/03 11:59:25;;;;;;;1.73;1.08;;;18.20;99.90;;;;;;5015584;28;20683;-78
2023/10/03 12:01:56;;;;;;;2.30;0.90;;;18.30;99.90;;;;;;5017028;28;20214;-77
2023/10/03 12:04:24;;;;;;;3.33;0.88;;;18.40;99.90;;;;;;5006908;28;20215;-77
2023/10/03 12:06:51;;;;;;;1.40;0.90;;;18.40;99.90;;;;;;5034649;28;20206;-77
2023/10/03 12:09:20;;;;;;;2.38;1.00;;;18.60;99.90;;;;;;5016482;28;20226;-78
2023/10/03 12:11:48;;;;;;;1.10;0.88;;;18.40;99.90;;;;;;5017013;28;20199;-77
2023/10/03 12:14:17;;;;;;;3.65;0.80;;;18.40;99.90;;;;;;5011678;28;20200;-77
2023/10/03 12:16:51;;;;;;;1.98;0.80;;;18.40;99.90;;;;;;5027007;28;20195;-80
2023/10/03 12:19:19;;;;;;;1.20;1.08;;;18.30;99.90;;;;;;5011522;28;20216;-80
2023/10/03 12:21:47;;;;;;;3.97;1.00;;;18.10;99.90;;;;;;5024348;28;20199;-80
2023/10/03 12:24:14;;;;;;;0.98;0.68;;;18.00;99.90;;;;;;5007822;28;20203;-81
2023/10/03 12:26:42;;;;;;;1.98;0.80;;;17.90;99.90;;;;;;5016876;28;20222;-80
2023/10/03 12:29:10;;;;;;;1.50;0.47;;;17.80;99.90;;;;;;5013504;28;20681;-79
2023/10/03 12:31:44;;;;;;;2.95;0.63;;;17.80;99.90;;;;;;5013832;28;20214;-80
2023/10/03 12:34:12;;;;;;;1.90;0.50;;;17.80;99.90;;;;;;5018845;28;20203;-80
2023/10/03 12:36:39;;;;;;;1.27;0.40;;;17.80;99.90;;;;;;5009090;28;20676;-80
2023/10/03 12:39:12;;;;;;;2.28;0.63;;;17.80;99.90;;;;;;5018211;28;20226;-80
2023/10/03 12:41:39;;;;;;;2.03;0.65;;;17.70;99.90;;;;;;5010951;28;20214;-80
2023/10/03 12:44:07;;;;;;;1.55;0.50;;;17.80;99.90;;;;;;5019998;28;20576;-80
2023/10/03 12:46:34;;;;;;;2.25;0.70;;;17.80;99.90;;;;;;5019691;28;20230;-80
2023/10/03 12:49:03;;;;;;;1.13;0.52;;;17.80;99.90;;;;;;5016841;28;20227;-80
2023/10/03 12:51:31;;;;;;;1.48;0.60;;;17.80;99.90;;;;;;5032435;28;20587;-79
2023/10/03 12:53:58;;;;;;;1.20;0.68;;;17.80;99.90;;;;;;5018416;28;20195;-80
2023/10/03 12:56:27;;;;;;;1.65;0.80;;;17.80;99.90;;;;;;5008598;28;20206;-80
2023/10/03 12:58:57;;;;;;;2.70;0.85;;;17.80;99.90;;;;;;5016977;28;20226;-79
2023/10/03 13:01:24;;;;;;;3.42;0.70;;;17.90;99.90;;;;;;5009123;28;20216;-80
2023/10/03 13:03:51;;;;;;;0.80;0.40;;;17.90;99.90;;;;;;5018212;28;20210;-79